Time;durP1;ratioP1;P1;durP2;ratioP2;P2;SDS_P1;SDS_P2;PMS_P1;PMS_P2;Temp;Humidity;BMP_temperature;BMP_pressure;BME280_temperature;BME280_humidity;BME280_pressure;Samples;Min_cycle;Max_cycle;Signal;HPM_P1;HPM_P2
2022/06/26 00:03:45;;;;;;;2.72;1.60;;;23.30;67.70;;;;;;10261124;28;20035;-59
2022/06/26 00:08:46;;;;;;;3.40;2.50;;;23.20;67.60;;;;;;10248690;29;20089;-59
2022/06/26 00:13:47;;;;;;;2.97;1.85;;;23.20;67.60;;;;;;10274136;28;20035;-59
2022/06/26 00:18:48;;;;;;;2.05;1.70;;;23.20;67.70;;;;;;10253898;28;20035;-59
2022/06/26 00:23:49;;;;;;;1.83;1.55;;;23.20;67.70;;;;;;10287303;28;20520;-59
2022/06/26 00:28:50;;;;;;;2.28;2.00;;;23.20;67.70;;;;;;10288927;28;20041;-60
2022/06/26 00:33:51;;;;;;;2.90;1.85;;;23.20;67.60;;;;;;10287063;28;20664;-59
2022/06/26 00:38:52;;;;;;;2.85;2.10;;;23.20;67.60;;;;;;10265264;28;20031;-59
2022/06/26 00:43:53;;;;;;;2.33;1.92;;;23.20;67.60;;;;;;10280726;28;20039;-60
2022/06/26 00:48:53;;;;;;;2.20;1.85;;;23.20;67.70;;;;;;10279948;28;20783;-59
2022/06/26 00:53:54;;;;;;;2.75;2.40;;;23.20;67.70;;;;;;10258303;28;20457;-59
2022/06/26 00:58:55;;;;;;;2.13;1.80;;;23.20;67.60;;;;;;10269860;28;20038;-59
2022/06/26 01:03:56;;;;;;;2.42;1.88;;;23.20;67.70;;;;;;10273373;28;20030;-59
2022/06/26 01:08:58;;;;;;;3.67;2.40;;;23.20;67.70;;;;;;10287217;28;20133;-60
2022/06/26 01:14:00;;;;;;;2.65;2.45;;;23.20;67.70;;;;;;10269884;28;20062;-60
2022/06/26 01:19:01;;;;;;;2.47;2.05;;;23.20;67.70;;;;;;10287506;28;20481;-59
2022/06/26 01:24:03;;;;;;;3.35;2.03;;;23.10;67.70;;;;;;10276608;28;20474;-59
2022/06/26 01:29:04;;;;;;;2.25;1.80;;;23.10;67.70;;;;;;10269764;28;20462;-60
2022/06/26 01:34:11;;;;;;;2.50;1.70;;;23.10;67.70;;;;;;10261081;28;20050;-59
2022/06/26 01:39:12;;;;;;;2.38;1.98;;;23.10;67.70;;;;;;10271797;28;20041;-59
2022/06/26 01:44:13;;;;;;;4.13;2.40;;;23.10;67.70;;;;;;10286031;28;20037;-60
2022/06/26 01:49:13;;;;;;;9.70;2.55;;;23.10;67.70;;;;;;10281156;28;20035;-59
2022/06/26 01:54:16;;;;;;;2.45;2.20;;;23.10;67.70;;;;;;10269464;28;20041;-61
2022/06/26 01:59:17;;;;;;;1.98;1.55;;;23.10;67.70;;;;;;10274666;28;20524;-60
2022/06/26 02:04:17;;;;;;;2.58;2.38;;;23.10;67.70;;;;;;10285700;28;20173;-61
2022/06/26 02:14:37;;;;;;;;;;;23.10;67.70;;;;;;10247683;28;20114;-60
2022/06/26 02:19:38;;;;;;;2.53;2.00;;;23.10;67.70;;;;;;10284806;28;19921;-61
2022/06/26 02:24:41;;;;;;;3.45;2.17;;;23.10;67.80;;;;;;10249829;28;20031;-59
2022/06/26 02:29:42;;;;;;;2.92;2.00;;;23.10;67.70;;;;;;10254035;29;20379;-60
2022/06/26 02:34:43;;;;;;;2.25;1.60;;;23.10;67.70;;;;;;10270100;28;20042;-59
2022/06/26 02:39:43;;;;;;;2.13;1.88;;;23.00;67.70;;;;;;10291958;28;20034;-59
2022/06/26 02:44:44;;;;;;;2.55;2.08;;;23.00;67.70;;;;;;10258393;28;20104;-59
2022/06/26 02:49:45;;;;;;;2.88;2.00;;;23.00;67.60;;;;;;10267970;28;20034;-59
2022/06/26 02:54:46;;;;;;;1.60;1.50;;;23.00;67.60;;;;;;10271895;28;20035;-60
2022/06/26 02:59:46;;;;;;;1.88;1.60;;;23.00;67.60;;;;;;10262752;28;20466;-60
2022/06/26 03:04:47;;;;;;;2.90;2.60;;;23.10;67.70;;;;;;10290657;28;20038;-60
2022/06/26 03:09:48;;;;;;;2.00;1.60;;;23.00;67.60;;;;;;10281308;28;20059;-60
2022/06/26 03:14:49;;;;;;;2.13;1.90;;;23.00;67.60;;;;;;10275862;28;20113;-59
2022/06/26 03:19:50;;;;;;;2.80;2.45;;;23.00;67.60;;;;;;10291511;28;20061;-58
2022/06/26 03:24:50;;;;;;;2.20;2.00;;;23.00;67.60;;;;;;10263343;28;20047;-60
2022/06/26 03:29:51;;;;;;;2.00;1.58;;;23.00;67.60;;;;;;10250843;28;20115;-59
2022/06/26 03:34:52;;;;;;;2.38;1.92;;;23.00;67.60;;;;;;10254869;28;20084;-60
2022/06/26 03:39:53;;;;;;;1.95;1.42;;;23.00;67.50;;;;;;10278359;28;20035;-60
2022/06/26 03:44:53;;;;;;;4.30;2.72;;;23.00;67.50;;;;;;10276243;28;20118;-59
2022/06/26 03:49:54;;;;;;;3.00;2.05;;;23.00;67.50;;;;;;10269359;28;20049;-59
2022/06/26 03:54:55;;;;;;;2.63;2.00;;;23.00;67.50;;;;;;10288828;28;20034;-60
2022/06/26 03:59:56;;;;;;;2.65;2.45;;;23.00;67.50;;;;;;10268128;28;20031;-59
2022/06/26 04:04:56;;;;;;;2.83;2.40;;;23.00;67.40;;;;;;10253150;28;20054;-59
2022/06/26 04:09:57;;;;;;;2.85;2.40;;;23.00;67.50;;;;;;10270778;28;20035;-60
2022/06/26 04:14:58;;;;;;;3.65;3.00;;;23.00;67.40;;;;;;10289495;28;20037;-59
2022/06/26 04:19:58;;;;;;;4.22;2.42;;;23.00;67.70;;;;;;10279213;28;20102;-60
2022/06/26 04:24:59;;;;;;;2.65;2.25;;;22.90;67.30;;;;;;10286073;28;20043;-60
2022/06/26 04:30:00;;;;;;;3.20;2.75;;;23.00;67.40;;;;;;10236233;28;20031;-59
2022/06/26 04:35:01;;;;;;;3.35;2.80;;;23.00;67.40;;;;;;10276184;28;20043;-60
2022/06/26 04:40:03;;;;;;;3.45;2.45;;;22.90;67.30;;;;;;10280386;28;20457;-59
2022/06/26 04:45:04;;;;;;;3.53;2.25;;;22.90;67.20;;;;;;10265189;28;20541;-59
2022/06/26 04:50:06;;;;;;;4.13;3.20;;;22.90;67.30;;;;;;10241141;28;20121;-59
2022/06/26 04:55:07;;;;;;;4.50;3.25;;;22.90;67.20;;;;;;10260952;28;20105;-60
2022/06/26 05:00:14;;;;;;;4.35;2.78;;;23.00;67.30;;;;;;10274665;28;20034;-61
2022/06/26 05:05:15;;;;;;;4.90;3.10;;;22.90;67.20;;;;;;10269537;28;20035;-62
2022/06/26 05:10:15;;;;;;;4.65;3.33;;;22.90;67.80;;;;;;10258408;28;20462;-60
2022/06/26 05:15:17;;;;;;;6.03;3.47;;;22.90;67.80;;;;;;10283762;28;20425;-59
2022/06/26 05:20:18;;;;;;;7.22;4.22;;;23.00;68.10;;;;;;10255507;28;20438;-60
2022/06/26 05:25:19;;;;;;;7.40;4.97;;;23.00;68.60;;;;;;10245718;29;20086;-58
2022/06/26 05:30:20;;;;;;;7.13;4.32;;;23.00;68.50;;;;;;10262794;28;20481;-59
2022/06/26 05:35:20;;;;;;;9.68;5.00;;;23.00;68.60;;;;;;10285675;28;20050;-60
2022/06/26 05:40:21;;;;;;;13.23;4.00;;;23.00;68.10;;;;;;10275771;28;20495;-61
2022/06/26 05:45:22;;;;;;;6.43;3.70;;;23.00;68.10;;;;;;10281292;28;20027;-60
2022/06/26 05:50:23;;;;;;;10.55;3.38;;;23.00;68.20;;;;;;10267771;28;20039;-59
2022/06/26 05:55:24;;;;;;;1.83;1.50;;;23.00;68.10;;;;;;10265983;28;20046;-60
2022/06/26 06:00:25;;;;;;;9.13;3.00;;;23.00;67.70;;;;;;10261569;28;20077;-59
2022/06/26 06:05:26;;;;;;;3.70;2.25;;;23.00;67.70;;;;;;10251319;29;20043;-60
2022/06/26 06:10:28;;;;;;;5.90;3.08;;;23.00;67.70;;;;;;10264450;28;20066;-61
2022/06/26 06:15:29;;;;;;;4.03;2.25;;;22.90;67.70;;;;;;10259861;28;20098;-60
2022/06/26 06:20:29;;;;;;;5.13;2.80;;;23.00;67.70;;;;;;10275695;28;20082;-59
2022/06/26 06:25:31;;;;;;;5.63;3.38;;;23.00;67.60;;;;;;10292808;28;20034;-60
2022/06/26 06:30:32;;;;;;;4.32;2.88;;;22.90;67.60;;;;;;10270757;28;20027;-59
2022/06/26 06:35:33;;;;;;;4.40;2.72;;;23.00;67.30;;;;;;10288941;28;20530;-60
2022/06/26 06:40:34;;;;;;;5.93;3.33;;;23.00;67.60;;;;;;10255913;28;20529;-60
2022/06/26 06:45:34;;;;;;;5.18;3.85;;;22.90;67.40;;;;;;10264469;28;20417;-59
2022/06/26 06:50:36;;;;;;;11.23;4.43;;;22.90;67.50;;;;;;10280057;28;20498;-59
2022/06/26 06:55:37;;;;;;;13.55;4.15;;;22.90;67.50;;;;;;10270080;28;20035;-59
2022/06/26 07:00:38;;;;;;;22.20;4.80;;;23.00;67.90;;;;;;10275488;28;20493;-59
2022/06/26 07:05:39;;;;;;;20.35;5.22;;;23.00;68.20;;;;;;10277971;28;20347;-61
2022/06/26 07:10:40;;;;;;;16.80;4.53;;;23.00;68.60;;;;;;10261932;28;20035;-59
2022/06/26 07:15:40;;;;;;;13.93;5.38;;;23.00;68.10;;;;;;10290149;28;20042;-58
2022/06/26 07:20:41;;;;;;;11.85;4.32;;;23.00;68.50;;;;;;10272357;28;20150;-59
2022/06/26 07:25:42;;;;;;;9.38;5.40;;;23.00;67.80;;;;;;10276972;28;20047;-58
2022/06/26 07:30:43;;;;;;;10.57;5.43;;;23.00;67.40;;;;;;10290113;28;20023;-59
2022/06/26 07:35:43;;;;;;;9.85;5.00;;;23.00;67.00;;;;;;10288247;28;20054;-59
2022/06/26 07:40:44;;;;;;;11.70;6.45;;;23.00;67.00;;;;;;10282230;28;20034;-59
2022/06/26 07:45:45;;;;;;;21.30;6.40;;;23.00;66.50;;;;;;10283911;28;20110;-59
2022/06/26 07:50:46;;;;;;;13.27;7.20;;;23.00;66.60;;;;;;10263208;28;20037;-60
2022/06/26 07:55:48;;;;;;;16.85;6.70;;;23.10;66.70;;;;;;10274975;28;20046;-60
2022/06/26 08:00:49;;;;;;;20.00;6.28;;;23.10;66.50;;;;;;10274097;28;20035;-60
2022/06/26 08:05:49;;;;;;;17.02;6.03;;;23.10;66.60;;;;;;10283556;28;20041;-60
2022/06/26 08:10:50;;;;;;;21.98;8.77;;;23.10;66.30;;;;;;10271866;28;20038;-60
2022/06/26 08:15:51;;;;;;;10.30;4.68;;;23.10;66.20;;;;;;10288254;28;20043;-60
2022/06/26 08:20:52;;;;;;;7.68;4.75;;;23.00;66.00;;;;;;10278405;28;20027;-59
2022/06/26 08:25:52;;;;;;;8.07;4.10;;;23.00;66.10;;;;;;10284356;28;20074;-60
2022/06/26 08:30:53;;;;;;;13.60;4.15;;;23.00;65.80;;;;;;10287610;28;20485;-59
2022/06/26 08:35:54;;;;;;;6.80;4.50;;;23.00;65.80;;;;;;10286727;28;20509;-59
2022/06/26 08:40:56;;;;;;;6.07;3.88;;;22.90;65.40;;;;;;10276080;28;20077;-59
2022/06/26 08:45:58;;;;;;;5.43;3.90;;;23.00;65.20;;;;;;10286828;28;20379;-60
2022/06/26 08:50:59;;;;;;;5.00;3.90;;;23.00;65.20;;;;;;10279792;28;20031;-59
2022/06/26 08:56:01;;;;;;;7.80;4.47;;;23.00;65.20;;;;;;10262365;28;20027;-60
2022/06/26 09:01:04;;;;;;;7.22;3.97;;;22.90;65.10;;;;;;10271040;28;20027;-58
2022/06/26 09:06:05;;;;;;;5.78;4.20;;;22.90;65.50;;;;;;10263528;28;20609;-59
2022/06/26 09:11:07;;;;;;;6.53;3.65;;;22.90;65.00;;;;;;10273487;28;20089;-60
2022/06/26 09:16:08;;;;;;;5.50;4.05;;;23.00;65.60;;;;;;10259567;28;20395;-60
2022/06/26 09:21:11;;;;;;;7.75;4.45;;;22.90;65.00;;;;;;10246082;29;20028;-61
2022/06/26 09:26:15;;;;;;;7.40;3.97;;;22.90;65.90;;;;;;10279002;28;20041;-61
2022/06/26 09:31:21;;;;;;;5.47;3.70;;;22.90;65.60;;;;;;10284079;28;20053;-60
2022/06/26 09:36:22;;;;;;;5.80;3.67;;;23.00;65.80;;;;;;10279950;28;20081;-59
2022/06/26 09:41:34;;;;;;;7.20;4.22;;;22.90;65.70;;;;;;10269584;28;20032;-58
2022/06/26 09:46:34;;;;;;;7.95;4.47;;;22.90;65.80;;;;;;10260188;28;20033;-60
2022/06/26 09:51:36;;;;;;;10.20;4.53;;;23.00;66.30;;;;;;10279742;28;20465;-60
2022/06/26 09:56:37;;;;;;;7.35;4.97;;;23.10;66.10;;;;;;10269400;28;20138;-59
2022/06/26 10:06:58;;;;;;;10.77;5.00;;;23.40;67.60;;;;;;10278225;28;20054;-60
2022/06/26 10:12:01;;;;;;;9.73;5.13;;;23.50;66.60;;;;;;10284771;28;20034;-56
2022/06/26 10:17:29;;;;;;;6.47;5.25;;;23.40;67.20;;;;;;10284832;28;20031;-61
2022/06/26 10:22:42;;;;;;;7.57;4.65;;;23.40;67.50;;;;;;10285668;28;20023;-61
2022/06/26 10:27:43;;;;;;;10.48;4.90;;;23.30;67.30;;;;;;10266340;28;20027;-60
2022/06/26 10:32:45;;;;;;;10.90;5.03;;;23.30;67.60;;;;;;10268912;28;20055;-61
2022/06/26 10:37:48;;;;;;;6.45;4.28;;;23.30;67.70;;;;;;10255515;28;20038;-61
2022/06/26 10:42:54;;;;;;;5.47;4.38;;;23.30;67.60;;;;;;10284593;28;20074;-61
2022/06/26 10:47:59;;;;;;;9.20;4.78;;;23.20;68.10;;;;;;10273236;28;20027;-61
2022/06/26 10:53:17;;;;;;;8.43;4.80;;;23.20;67.50;;;;;;10281640;28;20070;-61
2022/06/26 10:58:30;;;;;;;7.57;3.50;;;23.20;67.50;;;;;;10266093;28;20419;-62
2022/06/26 11:03:32;;;;;;;6.43;3.75;;;23.10;67.30;;;;;;10290633;28;20106;-60
2022/06/26 11:08:36;;;;;;;5.10;3.72;;;23.10;67.20;;;;;;10246970;29;20568;-61
2022/06/26 11:14:08;;;;;;;5.57;4.00;;;23.10;67.10;;;;;;10265641;28;20283;-61
2022/06/26 11:19:26;;;;;;;5.72;4.88;;;23.10;67.70;;;;;;10290314;28;20137;-61
2022/06/26 11:24:26;;;;;;;4.93;3.50;;;23.10;67.00;;;;;;10272282;28;20042;-62
2022/06/26 11:29:27;;;;;;;6.28;4.53;;;23.10;67.00;;;;;;10251340;28;20035;-61
2022/06/26 11:34:28;;;;;;;5.90;3.88;;;23.10;66.90;;;;;;10276675;28;20046;-61
2022/06/26 11:39:40;;;;;;;5.68;3.58;;;23.10;66.90;;;;;;10260981;28;20038;-62
2022/06/26 11:44:50;;;;;;;5.28;4.05;;;23.10;66.80;;;;;;10267371;28;20031;-61
2022/06/26 11:49:50;;;;;;;4.82;3.90;;;23.10;66.80;;;;;;10272945;28;20035;-61
2022/06/26 11:55:01;;;;;;;4.40;3.20;;;23.10;66.70;;;;;;10279617;28;20042;-61
2022/06/26 12:00:06;;;;;;;4.60;3.88;;;23.10;66.70;;;;;;10272905;28;20038;-61
2022/06/26 12:05:07;;;;;;;5.68;3.58;;;23.10;66.60;;;;;;10272853;28;20045;-62
2022/06/26 12:10:10;;;;;;;4.07;3.65;;;23.10;66.50;;;;;;10274988;28;20474;-62
2022/06/26 12:15:15;;;;;;;5.10;3.67;;;23.10;66.50;;;;;;10282733;28;20037;-61
2022/06/26 12:20:16;;;;;;;3.67;3.13;;;23.10;66.50;;;;;;10268266;28;20118;-62
2022/06/26 12:25:28;;;;;;;5.00;3.53;;;23.10;66.50;;;;;;10265128;28;20046;-60
2022/06/26 12:30:35;;;;;;;4.53;3.40;;;23.10;66.40;;;;;;10280101;28;20059;-61
2022/06/26 12:35:36;;;;;;;4.88;3.17;;;23.10;66.50;;;;;;10276026;28;20126;-62
2022/06/26 12:40:37;;;;;;;5.28;3.20;;;23.00;66.40;;;;;;10255383;28;20031;-62
2022/06/26 12:45:38;;;;;;;2.92;2.63;;;23.00;66.40;;;;;;10275828;28;20039;-61
2022/06/26 12:50:39;;;;;;;4.70;3.55;;;23.00;66.40;;;;;;10287280;28;20582;-61
2022/06/26 12:55:40;;;;;;;6.78;3.55;;;23.00;66.30;;;;;;10264364;28;20101;-63
2022/06/26 13:00:41;;;;;;;6.75;3.83;;;23.00;66.40;;;;;;10268964;28;20130;-62
2022/06/26 13:05:42;;;;;;;8.95;3.30;;;23.10;67.00;;;;;;10297992;28;20035;-62
2022/06/26 13:10:44;;;;;;;8.63;3.83;;;23.10;67.20;;;;;;10255417;28;20051;-61
2022/06/26 13:15:45;;;;;;;14.60;4.25;;;23.10;67.20;;;;;;10259152;28;20042;-61
2022/06/26 13:20:46;;;;;;;16.20;3.55;;;23.10;66.80;;;;;;10285487;28;20101;-60
2022/06/26 13:25:46;;;;;;;7.45;3.30;;;23.10;66.90;;;;;;10272612;28;20114;-61
2022/06/26 13:30:47;;;;;;;11.13;3.97;;;23.10;67.00;;;;;;10258426;28;20743;-62
2022/06/26 13:35:48;;;;;;;10.82;3.45;;;23.10;67.20;;;;;;10263780;28;20075;-61
2022/06/26 13:40:49;;;;;;;16.00;3.72;;;23.10;67.40;;;;;;10263568;28;20019;-61
2022/06/26 13:45:50;;;;;;;29.30;5.28;;;23.10;67.40;;;;;;10250184;28;20031;-61
2022/06/26 13:50:51;;;;;;;23.48;4.68;;;23.10;67.40;;;;;;10270883;28;20027;-61
2022/06/26 13:55:52;;;;;;;13.77;4.47;;;23.10;67.30;;;;;;10269295;28;20679;-61
2022/06/26 14:00:54;;;;;;;10.90;3.20;;;23.10;67.30;;;;;;10265949;28;20023;-61
2022/06/26 14:05:54;;;;;;;11.35;3.72;;;23.10;67.20;;;;;;10270092;28;20073;-61
2022/06/26 14:10:56;;;;;;;8.57;2.85;;;23.10;67.10;;;;;;10277056;28;20571;-60
2022/06/26 14:15:57;;;;;;;11.25;3.08;;;23.10;67.20;;;;;;10275888;28;20059;-60
2022/06/26 14:20:58;;;;;;;7.55;2.88;;;23.10;67.20;;;;;;10269272;28;20035;-61
2022/06/26 14:26:02;;;;;;;10.55;3.13;;;23.10;67.40;;;;;;10276569;28;20432;-61
2022/06/26 14:31:06;;;;;;;5.85;3.25;;;23.10;67.30;;;;;;10278011;28;20091;-60
2022/06/26 14:36:07;;;;;;;10.68;3.60;;;23.10;67.10;;;;;;10283791;28;20046;-59
2022/06/26 14:41:09;;;;;;;10.18;3.33;;;23.10;66.90;;;;;;10270861;28;20494;-60
2022/06/26 14:46:09;;;;;;;9.18;3.00;;;23.10;67.70;;;;;;10251246;29;20035;-61
2022/06/26 14:51:10;;;;;;;12.32;3.45;;;23.10;67.50;;;;;;10270650;28;20035;-59
2022/06/26 14:56:11;;;;;;;7.68;3.25;;;23.10;66.90;;;;;;10285223;28;20077;-61
2022/06/26 15:01:12;;;;;;;15.23;2.72;;;23.10;65.60;;;;;;10289737;28;20368;-58
2022/06/26 15:06:12;;;;;;;11.43;2.63;;;23.10;64.70;;;;;;10290853;28;20034;-57
2022/06/26 15:11:13;;;;;;;8.70;2.53;;;23.20;64.50;;;;;;10272037;28;20123;-60
2022/06/26 15:16:14;;;;;;;7.45;2.47;;;23.20;63.50;;;;;;10260170;28;20031;-59
2022/06/26 15:21:14;;;;;;;9.38;4.72;;;23.20;64.70;;;;;;10268141;28;20097;-61
2022/06/26 15:26:15;;;;;;;10.25;2.75;;;23.20;65.90;;;;;;10280628;28;20086;-61
2022/06/26 15:31:18;;;;;;;10.85;3.03;;;23.10;64.80;;;;;;10261936;28;20572;-60
2022/06/26 15:36:19;;;;;;;9.93;4.40;;;23.10;65.10;;;;;;10275048;28;20051;-60
2022/06/26 15:41:19;;;;;;;14.57;5.13;;;23.30;65.20;;;;;;10271770;28;20746;-60
2022/06/26 15:46:20;;;;;;;14.60;6.88;;;23.30;66.80;;;;;;10250840;28;20027;-62
2022/06/26 15:51:23;;;;;;;7.85;3.20;;;23.30;66.30;;;;;;10267283;28;20031;-60
2022/06/26 15:56:24;;;;;;;6.70;3.25;;;23.20;64.60;;;;;;10276712;28;20654;-58
2022/06/26 16:01:25;;;;;;;10.18;3.00;;;23.20;64.40;;;;;;10260748;28;20026;-59
2022/06/26 16:06:27;;;;;;;14.25;2.97;;;23.20;64.50;;;;;;10284616;28;20035;-60
2022/06/26 16:11:28;;;;;;;12.57;3.72;;;23.20;64.80;;;;;;10263342;28;20039;-59
2022/06/26 16:16:29;;;;;;;15.50;3.85;;;23.20;65.50;;;;;;10274446;28;20539;-58
2022/06/26 16:21:30;;;;;;;10.85;2.88;;;23.30;64.60;;;;;;10288047;28;20029;-59
2022/06/26 16:26:30;;;;;;;8.07;2.72;;;23.30;64.10;;;;;;10287623;28;20042;-60
2022/06/26 16:31:32;;;;;;;6.63;2.72;;;23.20;63.20;;;;;;10282160;28;20039;-61
2022/06/26 16:36:33;;;;;;;6.85;2.60;;;23.20;63.00;;;;;;10287216;28;20038;-58
2022/06/26 16:41:34;;;;;;;9.20;3.17;;;23.20;62.80;;;;;;10283415;28;20658;-61
2022/06/26 16:46:34;;;;;;;8.57;2.58;;;23.20;62.80;;;;;;10285150;28;20031;-60
2022/06/26 16:51:35;;;;;;;7.32;2.42;;;23.20;62.60;;;;;;10279446;28;20062;-60
2022/06/26 16:56:36;;;;;;;4.60;2.08;;;23.10;62.50;;;;;;10280645;28;20043;-60
2022/06/26 17:01:37;;;;;;;6.72;2.85;;;23.10;62.20;;;;;;10267331;28;20045;-60
2022/06/26 17:06:37;;;;;;;8.55;2.60;;;23.10;62.00;;;;;;10267864;28;20034;-61
2022/06/26 17:11:38;;;;;;;4.15;2.05;;;23.10;61.80;;;;;;10259724;28;20039;-60
2022/06/26 17:16:39;;;;;;;4.82;2.33;;;23.10;61.60;;;;;;10280016;28;20031;-60
2022/06/26 17:21:40;;;;;;;5.03;2.35;;;23.00;61.20;;;;;;10269165;28;20520;-59
2022/06/26 17:26:41;;;;;;;4.45;2.22;;;23.00;61.50;;;;;;10282194;28;20030;-60
2022/06/26 17:31:43;;;;;;;5.85;1.67;;;23.00;61.00;;;;;;10245673;29;20090;-60
2022/06/26 17:36:44;;;;;;;3.72;1.77;;;23.00;60.90;;;;;;10266692;28;20446;-59
2022/06/26 17:41:45;;;;;;;4.18;1.90;;;23.00;60.80;;;;;;10275881;28;20062;-60
2022/06/26 17:46:45;;;;;;;8.23;2.38;;;23.00;61.20;;;;;;10244646;28;20035;-61
2022/06/26 17:51:46;;;;;;;4.10;1.60;;;23.00;59.10;;;;;;10266657;28;20035;-59
2022/06/26 17:56:47;;;;;;;3.83;1.73;;;23.00;59.90;;;;;;10290042;28;20034;-59
2022/06/26 18:01:48;;;;;;;4.65;1.90;;;23.00;60.10;;;;;;10294373;28;20077;-59
2022/06/26 18:06:49;;;;;;;2.67;1.48;;;23.00;60.40;;;;;;10293014;28;20031;-58
2022/06/26 18:11:50;;;;;;;3.40;1.85;;;23.00;60.10;;;;;;10290727;28;20043;-61
2022/06/26 18:16:51;;;;;;;3.47;1.73;;;23.00;60.50;;;;;;10292442;28;20682;-59
2022/06/26 18:21:51;;;;;;;2.60;1.20;;;22.90;60.60;;;;;;10293530;28;20094;-59
2022/06/26 18:26:53;;;;;;;4.10;1.75;;;22.90;60.30;;;;;;10291960;28;20057;-59
2022/06/26 18:31:54;;;;;;;4.15;2.35;;;22.90;60.80;;;;;;10279483;28;20050;-59
2022/06/26 18:36:54;;;;;;;2.88;1.50;;;22.90;61.10;;;;;;10271199;28;20507;-59
2022/06/26 18:41:55;;;;;;;2.60;1.95;;;22.90;60.70;;;;;;10252763;28;20031;-59
2022/06/26 18:46:56;;;;;;;2.80;2.40;;;22.90;60.70;;;;;;10281233;28;20030;-58
2022/06/26 18:51:57;;;;;;;3.65;1.80;;;22.90;60.40;;;;;;10279041;28;20047;-59
2022/06/26 18:56:58;;;;;;;4.22;2.13;;;22.90;60.60;;;;;;10274290;28;20045;-60
2022/06/26 19:02:00;;;;;;;5.05;2.63;;;22.90;60.70;;;;;;10278393;28;20683;-59
2022/06/26 19:07:01;;;;;;;3.55;2.10;;;22.90;60.20;;;;;;10276365;28;20043;-58
2022/06/26 19:17:23;;;;;;;3.53;2.03;;;22.90;60.60;;;;;;10283460;28;20502;-59
2022/06/26 19:22:25;;;;;;;4.45;2.30;;;22.90;60.60;;;;;;10271231;28;20040;-58
2022/06/26 19:27:26;;;;;;;3.45;1.70;;;22.90;60.80;;;;;;10289469;28;20023;-58
2022/06/26 19:32:26;;;;;;;2.88;1.95;;;22.90;61.10;;;;;;10289290;28;20053;-60
2022/06/26 19:37:27;;;;;;;4.75;1.88;;;22.90;61.20;;;;;;10282171;28;20053;-59
2022/06/26 19:42:31;;;;;;;2.67;2.13;;;22.90;61.40;;;;;;10286632;28;20043;-60
2022/06/26 19:47:33;;;;;;;4.57;2.03;;;22.80;61.30;;;;;;10289190;28;20038;-60
2022/06/26 19:52:33;;;;;;;4.75;2.13;;;22.80;61.20;;;;;;10265003;28;20092;-59
2022/06/26 19:57:34;;;;;;;2.33;1.52;;;22.80;61.30;;;;;;10242479;28;20093;-60
2022/06/26 20:02:36;;;;;;;3.08;1.92;;;22.80;61.50;;;;;;10264523;28;20067;-59
2022/06/26 20:07:38;;;;;;;2.55;1.52;;;22.80;62.00;;;;;;10274105;28;20034;-61
2022/06/26 20:12:39;;;;;;;6.75;2.60;;;22.80;62.00;;;;;;10266430;28;20086;-60
2022/06/26 20:17:40;;;;;;;5.05;1.85;;;22.80;61.90;;;;;;10283564;28;20089;-60
2022/06/26 20:22:40;;;;;;;4.47;2.10;;;22.80;62.10;;;;;;10235364;29;20038;-60
2022/06/26 20:27:41;;;;;;;2.78;2.35;;;22.90;63.20;;;;;;10267105;28;20031;-59
2022/06/26 20:32:42;;;;;;;3.25;1.95;;;22.90;65.70;;;;;;10271669;28;20117;-59
2022/06/26 20:37:43;;;;;;;3.08;2.35;;;22.90;65.70;;;;;;10259096;28;20054;-60
2022/06/26 20:42:44;;;;;;;4.68;2.28;;;22.90;65.10;;;;;;10263709;28;20026;-59
2022/06/26 20:47:45;;;;;;;2.75;2.28;;;22.90;65.20;;;;;;10266708;28;20043;-58
2022/06/26 20:52:46;;;;;;;2.72;2.00;;;22.90;65.10;;;;;;10237379;29;20027;-60
2022/06/26 20:57:46;;;;;;;3.28;1.77;;;22.80;65.00;;;;;;10277705;28;20043;-59
2022/06/26 21:02:47;;;;;;;3.92;1.60;;;22.90;64.90;;;;;;10263922;28;20081;-59
2022/06/26 21:07:49;;;;;;;3.55;1.75;;;22.90;64.90;;;;;;10263657;28;20026;-59
2022/06/26 21:12:50;;;;;;;3.95;2.00;;;22.80;64.70;;;;;;10285450;28;20078;-59
2022/06/26 21:17:52;;;;;;;3.42;1.58;;;22.80;64.60;;;;;;10285202;28;20035;-59
2022/06/26 21:22:52;;;;;;;5.03;2.47;;;22.80;64.60;;;;;;10285371;28;20019;-58
2022/06/26 21:27:53;;;;;;;2.70;1.42;;;22.80;64.60;;;;;;10285049;28;20433;-58
2022/06/26 21:32:54;;;;;;;2.50;1.38;;;22.80;64.50;;;;;;10271550;28;20061;-59
2022/06/26 21:37:55;;;;;;;2.72;1.90;;;22.80;64.40;;;;;;10263934;28;20038;-59
2022/06/26 21:42:55;;;;;;;1.95;1.08;;;22.80;64.50;;;;;;10277032;28;20114;-58
2022/06/26 21:47:58;;;;;;;1.73;1.38;;;22.80;64.40;;;;;;10283761;28;20031;-58
2022/06/26 21:52:59;;;;;;;2.60;2.03;;;22.80;64.40;;;;;;10245049;29;20058;-59
2022/06/26 21:58:00;;;;;;;2.10;1.73;;;22.80;64.40;;;;;;10254056;28;20031;-59
2022/06/26 22:03:04;;;;;;;2.83;1.45;;;22.80;65.00;;;;;;10272942;28;20039;-60
2022/06/26 22:08:05;;;;;;;1.50;1.10;;;22.80;64.40;;;;;;10266150;28;20027;-58
2022/06/26 22:13:06;;;;;;;2.55;1.60;;;22.80;64.40;;;;;;10270077;28;20042;-58
2022/06/26 22:18:07;;;;;;;1.50;0.98;;;22.80;64.40;;;;;;10285821;28;20041;-59
2022/06/26 22:23:08;;;;;;;2.42;1.48;;;22.80;64.40;;;;;;10270535;28;20534;-59
2022/06/26 22:28:08;;;;;;;1.45;1.35;;;22.80;64.40;;;;;;10277635;28;20689;-59
2022/06/26 22:33:11;;;;;;;1.75;1.15;;;22.80;64.40;;;;;;10284177;28;20070;-58
2022/06/26 22:38:11;;;;;;;1.52;1.35;;;22.80;64.40;;;;;;10266206;28;20067;-59
2022/06/26 22:43:12;;;;;;;2.30;1.67;;;22.80;64.60;;;;;;10258646;28;20082;-59
2022/06/26 22:48:13;;;;;;;1.60;1.23;;;22.70;64.40;;;;;;10272143;28;20034;-58
2022/06/26 22:53:13;;;;;;;1.60;1.40;;;22.70;64.40;;;;;;10238444;28;20090;-57
2022/06/26 22:58:14;;;;;;;2.53;1.40;;;22.70;64.50;;;;;;10270634;28;20027;-59
2022/06/26 23:03:15;;;;;;;2.25;1.30;;;22.70;64.50;;;;;;10277691;28;20038;-59
2022/06/26 23:08:16;;;;;;;2.50;1.30;;;22.70;64.40;;;;;;10290086;28;20039;-59
2022/06/26 23:13:17;;;;;;;2.58;1.38;;;22.70;64.40;;;;;;10267172;28;20046;-58
2022/06/26 23:18:18;;;;;;;2.38;1.38;;;22.70;64.40;;;;;;10302543;28;20081;-59
2022/06/26 23:23:19;;;;;;;2.58;1.40;;;22.70;64.50;;;;;;10288737;28;20077;-59
2022/06/26 23:28:20;;;;;;;2.95;1.50;;;22.70;64.50;;;;;;10252992;28;20037;-58
2022/06/26 23:33:21;;;;;;;2.13;1.63;;;22.70;64.50;;;;;;10287150;28;20497;-59
2022/06/26 23:38:21;;;;;;;2.50;1.77;;;22.70;64.50;;;;;;10289175;28;20413;-59
2022/06/26 23:43:23;;;;;;;2.15;1.38;;;22.70;65.10;;;;;;10266369;28;20062;-58
2022/06/26 23:48:24;;;;;;;2.08;1.70;;;22.70;64.60;;;;;;10262254;28;20031;-58
2022/06/26 23:53:25;;;;;;;1.27;1.08;;;22.70;64.50;;;;;;10248478;28;20054;-59
2022/06/26 23:58:25;;;;;;;1.90;1.52;;;22.70;64.60;;;;;;10285754;28;20496;-60
